Transnorthern DC3 at Goodnews on Aug 4th 2021, runway excursion

Last Update: August 5, 2021 / 18:07:13 GMT/Zulu time

Bookmark this article
Incident Facts

Date of incident
Aug 4, 2021

Classification
Accident

Flight number
TNV-83

Aircraft Registration
N30TN

Aircraft Type
DOUGLAS DC-3

ICAO Type Designator
DC3

A Transnorthern Douglas DC-3, registration N30TN performing flight TNV-83 from Anchorage,AK to Goodnews,AK (USA) with 15 passengers and 2 crew, landed on Goodnews' gravel runway 06 at 12:47L (20:47Z) but suffered a runway excursion and came to a stop on soft ground. There were no injuries.

The FAA reported: "AIRCRAFT LANDED AND VEERED OFF RUNWAY INTO THE MUD, GOODNEWS, AK." stating the damage was minor, the occurrence was rated an incident.

No Metars of Goodnews are available, Metars of PAPM about 10nm from Goodnews:
PAPM 042156Z AUTO 16010KT 10SM OVC015 14/12 A2975 RMK AO2 RAB36E54 SLP077 P0000 T01390117=
PAPM 042056Z AUTO 14013KT 10SM BKN017 OVC027 14/11 A2974 RMK AO2 SLP073 T01440111 53005=
PAPM 042043Z AUTO 15015KT 10SM FEW021 BKN027 OVC044 15/11 A2974 RMK AO2=
PAPM 041956Z AUTO 14010G19KT 10SM CLR 15/11 A2972 RMK AO2 SLP067 T01500106=
PAPM 041856Z AUTO 14014G24KT 10SM CLR 14/11 A2971 RMK AO2 PK WND 13026/1814 SLP064 T01440106=
PAPM 041756Z AUTO 11015G21KT 10SM FEW020 14/11 A2973 RMK AO2 SLP068 T01440106 10150 20128 50000=
PAPM 041656Z AUTO VRB06KT 10SM CLR 14/10 A2974 RMK AO2 SLP072 T01390100=

Related NOTAM:
!ENA 08/020 GNU RWY 06/24 UNSAFE DISABLED ACFT APCH END RWY 24 2108042313-2108112000
Aircraft Registration Data
Registration mark
N30TN
Country of Registration
United States
Date of Registration
Manufacturer
DOUGLAS
Aircraft Model / Type
DC3
Number of Seats
ICAO Aircraft Type
DC3
Serial Number
Aircraft Address / Mode S Code (HEX)
Engine Count
Engine Type
Main Owner
Nqmjhlcdke hqiqje cneqdpedcAqkmmnAmheechc jfebiA iehih fqfg leeikgdmdeffAfeic epe Subscribe to unlock
Incident Facts

Date of incident
Aug 4, 2021

Classification
Accident

Flight number
TNV-83

Aircraft Registration
N30TN

Aircraft Type
DOUGLAS DC-3

ICAO Type Designator
DC3

This article is published under license from Avherald.com. © of text by Avherald.com.
Article source

You can read 2 more free articles without a subscription.

Subscribe now and continue reading without any limits!

Are you a subscriber? Login
Subscribe

Read unlimited articles and receive our daily update briefing. Gain better insights into what is happening in commercial aviation safety.

Free newsletter

Want to know more and stay ahead? Get our free weekly newsletter and join 5353 existing subscribers.

By subscribing, you accept our terms and conditions and confirm that you've read our privacy policy.

Send tip

Support AeroInside by sending a small tip amount.

Related articles

Newest articles

Subscribe today

Are you researching aviation incidents? Get access to AeroInside Insights, unlimited read access and receive the daily newsletter.

Pick your plan and subscribe

Partner

Blockaviation logo

A new way to document and demonstrate airworthiness compliance and aircraft value. Find out more.

Virtual Speech logo

ELITE Simulation Solutions is a leading global provider of Flight Simulation Training Devices, IFR training software as well as flight controls and related services. Find out more.

Get updates

Never miss an article from AeroInside. Subscribe to our free weekly newsletter and join 5353 existing subscribers.

By subscribing, you accept our terms and conditions and that you've read our privacy policy.

AeroInside Blog
Popular aircraft
Airbus A320
Boeing 737-800
Boeing 737-800 MAX
Popular airlines
American Airlines
United
Delta
Air Canada
Lufthansa
British Airways